Time;durP1;ratioP1;P1;durP2;ratioP2;P2;SDS_P1;SDS_P2;PMS_P1;PMS_P2;Temp;Humidity;BMP_temperature;BMP_pressure;BME280_temperature;BME280_humidity;BME280_pressure;Samples;Min_cycle;Max_cycle;Signal;HPM_P1;HPM_P2
2022/07/14 00:01:45;;;;;;;3.33;1.90;;;;;;;18.33;54.01;100337.06;5070737;28;20127;-29
2022/07/14 00:04:11;;;;;;;4.30;1.98;;;;;;;18.37;54.23;100349.81;5089231;28;20111;-28
2022/07/14 00:06:36;;;;;;;3.70;2.00;;;;;;;18.15;54.57;100335.66;5089039;28;20040;-28
2022/07/14 00:09:03;;;;;;;3.00;1.73;;;;;;;18.04;55.11;100350.97;5089081;28;20027;-30
2022/07/14 00:11:28;;;;;;;3.40;1.83;;;;;;;17.84;55.77;100340.88;5069710;28;20503;-27
2022/07/14 00:13:54;;;;;;;3.92;1.60;;;;;;;17.67;56.41;100341.84;5070761;28;20028;-30
2022/07/14 00:16:20;;;;;;;4.80;1.90;;;;;;;17.94;55.61;100351.75;5070735;28;20427;-27
2022/07/14 00:18:45;;;;;;;3.67;1.63;;;;;;;18.15;55.17;100351.84;5088979;28;20035;-28
2022/07/14 00:21:15;;;;;;;4.03;2.40;;;;;;;18.00;55.73;100355.25;5088778;28;20043;-29
2022/07/14 00:23:42;;;;;;;3.13;1.73;;;;;;;17.78;56.70;100341.91;5070052;28;20047;-27
2022/07/14 00:26:08;;;;;;;3.83;2.00;;;;;;;18.07;55.91;100353.16;5088464;28;20119;-27
2022/07/14 00:28:33;;;;;;;2.67;1.75;;;;;;;17.74;56.93;100351.59;5088743;28;20034;-28
2022/07/14 00:31:03;;;;;;;3.17;1.98;;;;;;;17.80;56.76;100329.78;5089033;28;20103;-29
2022/07/14 00:33:33;;;;;;;3.97;1.80;;;;;;;18.03;55.62;100338.56;5069869;28;20123;-32
2022/07/14 00:35:59;;;;;;;4.30;1.80;;;;;;;18.00;56.19;100356.09;5070140;28;20032;-29
2022/07/14 00:38:24;;;;;;;5.07;1.60;;;;;;;18.17;55.34;100352.41;5088334;28;20034;-28
2022/07/14 00:40:50;;;;;;;4.70;1.85;;;;;;;17.98;56.27;100355.53;5069848;28;20032;-27
2022/07/14 00:43:16;;;;;;;5.43;2.03;;;;;;;17.84;56.39;100348.97;5088559;28;20107;-27
2022/07/14 00:45:41;;;;;;;3.47;2.00;;;;;;;17.74;56.54;100340.78;5088085;28;20133;-27
2022/07/14 00:48:07;;;;;;;4.45;2.00;;;;;;;18.02;55.64;100353.94;5088383;28;20480;-27
2022/07/14 00:50:33;;;;;;;2.90;2.00;;;;;;;17.92;55.78;100335.00;5088187;28;20181;-28
2022/07/14 00:52:58;;;;;;;3.72;1.80;;;;;;;17.91;55.94;100338.75;5069747;28;20506;-28
2022/07/14 00:55:24;;;;;;;4.40;2.05;;;;;;;17.93;55.96;100339.31;5069334;28;20039;-27
2022/07/14 00:57:50;;;;;;;5.32;1.67;;;;;;;17.84;55.40;100348.97;5088265;28;20028;-27
2022/07/14 01:00:17;;;;;;;3.30;1.77;;;;;;;17.81;55.96;100373.72;5088157;28;20021;-28
2022/07/14 01:02:45;;;;;;;4.35;1.90;;;;;;;17.81;55.95;100362.94;5088097;28;20412;-30
2022/07/14 01:05:11;;;;;;;3.13;1.70;;;;;;;17.80;56.21;100355.94;5069550;28;20055;-31
2022/07/14 01:07:37;;;;;;;3.80;1.60;;;;;;;17.73;55.96;100345.34;5068912;28;20331;-28
2022/07/14 01:10:03;;;;;;;5.15;2.10;;;;;;;17.76;56.11;100344.84;5088373;28;20036;-28
2022/07/14 01:12:28;;;;;;;3.00;1.50;;;;;;;17.64;57.30;100358.50;5069456;28;20043;-29
2022/07/14 01:14:54;;;;;;;4.63;1.63;;;;;;;17.57;57.37;100336.38;5087913;28;20024;-28
2022/07/14 01:17:20;;;;;;;3.67;1.88;;;;;;;17.60;57.51;100359.28;5087600;28;20036;-29
2022/07/14 01:19:48;;;;;;;2.20;1.60;;;;;;;17.76;56.69;100355.63;5087908;28;20051;-30
2022/07/14 01:22:13;;;;;;;3.00;1.58;;;;;;;17.55;56.93;100338.50;5068874;28;20484;-30
2022/07/14 01:24:39;;;;;;;4.65;1.73;;;;;;;17.33;58.57;100341.28;5087165;28;20042;-28
2022/07/14 01:27:05;;;;;;;4.43;1.67;;;;;;;17.53;58.00;100356.00;5069317;28;20193;-32
2022/07/14 01:29:30;;;;;;;4.35;1.90;;;;;;;17.53;57.08;100345.19;5087454;28;20467;-28
2022/07/14 01:31:56;;;;;;;5.45;1.73;;;;;;;17.51;57.91;100364.38;5069341;28;20046;-30
2022/07/14 01:34:22;;;;;;;3.00;1.80;;;;;;;17.41;57.99;100359.69;5087372;28;20225;-27
2022/07/14 01:36:49;;;;;;;8.02;2.08;;;;;;;17.22;58.08;100340.41;5069140;28;20457;-28
2022/07/14 01:39:15;;;;;;;3.20;1.83;;;;;;;17.03;58.56;100352.59;5069324;28;20063;-28
2022/07/14 01:41:41;;;;;;;4.18;1.73;;;;;;;17.03;58.50;100331.03;5087181;28;20090;-30
2022/07/14 01:44:07;;;;;;;2.30;1.63;;;;;;;17.19;58.41;100367.84;5069187;28;20036;-28
2022/07/14 01:46:33;;;;;;;4.70;1.98;;;;;;;16.92;58.94;100342.78;5069027;28;20032;-27
2022/07/14 01:48:58;;;;;;;4.15;1.73;;;;;;;17.04;58.92;100351.53;5087254;28;20024;-31
2022/07/14 01:51:24;;;;;;;3.10;1.80;;;;;;;17.30;59.02;100357.16;5086571;28;20039;-32
2022/07/14 01:53:50;;;;;;;4.82;2.00;;;;;;;17.35;58.19;100365.31;5087308;28;20069;-29
2022/07/14 01:56:15;;;;;;;5.32;2.20;;;;;;;17.19;58.59;100357.06;5068753;28;20028;-27
2022/07/14 01:58:40;;;;;;;5.53;1.85;;;;;;;17.10;59.37;100345.13;5087275;28;20552;-29
2022/07/14 02:03:56;;;;;;;2.83;1.75;;;;;;;17.04;59.31;100365.81;5087416;28;20113;-28
2022/07/14 02:06:23;;;;;;;3.03;1.65;;;;;;;16.75;60.52;100370.59;5068906;28;20027;-29
2022/07/14 02:08:49;;;;;;;2.33;1.80;;;;;;;16.97;60.11;100353.63;5068826;28;20032;-27
2022/07/14 02:13:58;;;;;;;2.05;1.63;;;;;;;16.78;59.98;100345.06;5087204;28;20042;-28
2022/07/14 02:16:24;;;;;;;2.50;1.80;;;;;;;16.73;60.15;100359.25;5068397;28;20025;-27
2022/07/14 02:18:49;;;;;;;4.15;2.03;;;;;;;16.73;60.31;100356.56;5087331;28;20042;-27
2022/07/14 02:21:15;;;;;;;2.53;1.60;;;;;;;16.80;60.34;100375.25;5087417;28;20503;-29
2022/07/14 02:23:41;;;;;;;6.45;2.10;;;;;;;16.69;60.80;100368.91;5086947;28;20032;-28
2022/07/14 02:26:12;;;;;;;4.78;2.22;;;;;;;16.62;61.11;100371.78;5068641;28;20024;-27
2022/07/14 02:28:38;;;;;;;3.47;1.80;;;;;;;16.72;61.26;100373.78;5068684;28;20466;-27
2022/07/14 02:31:04;;;;;;;2.55;1.90;;;;;;;16.65;60.83;100362.38;5086670;28;20024;-27
2022/07/14 02:33:29;;;;;;;2.60;2.00;;;;;;;16.61;61.38;100378.25;5068226;28;20051;-28
2022/07/14 02:35:54;;;;;;;5.35;1.90;;;;;;;16.54;61.16;100357.97;5090410;28;20021;-27
2022/07/14 02:38:21;;;;;;;5.68;2.30;;;;;;;16.45;61.30;100349.53;5090811;28;20032;-27
2022/07/14 02:40:47;;;;;;;4.15;2.00;;;;;;;16.62;61.13;100384.44;5072948;28;20491;-31
2022/07/14 02:43:12;;;;;;;5.00;2.20;;;;;;;16.43;61.51;100387.47;5072389;28;20054;-28
2022/07/14 02:45:38;;;;;;;7.35;2.45;;;;;;;16.51;61.39;100394.28;5090367;28;20028;-27
2022/07/14 02:48:06;;;;;;;11.18;3.00;;;;;;;16.49;62.24;100393.72;5090825;28;20055;-27
2022/07/14 02:50:32;;;;;;;9.02;2.28;;;;;;;16.52;61.36;100384.31;5072382;28;20035;-28
2022/07/14 02:52:57;;;;;;;3.70;2.00;;;;;;;16.61;60.97;100388.19;5090863;28;20043;-29
2022/07/14 02:55:23;;;;;;;3.72;2.33;;;;;;;16.59;61.21;100391.16;5090049;28;20023;-28
2022/07/14 02:57:48;;;;;;;4.50;2.15;;;;;;;16.61;61.29;100389.03;5090413;28;20039;-27
2022/07/14 03:00:14;;;;;;;3.55;2.20;;;;;;;16.75;61.15;100394.81;5090054;28;20025;-32
2022/07/14 03:02:40;;;;;;;5.82;2.25;;;;;;;16.51;61.56;100377.31;5090226;28;20046;-32
2022/07/14 03:05:06;;;;;;;5.07;2.30;;;;;;;16.65;60.74;100400.09;5071829;28;20492;-27
2022/07/14 03:07:32;;;;;;;3.25;2.15;;;;;;;16.39;62.20;100399.78;5090130;28;20077;-29
2022/07/14 03:09:57;;;;;;;6.55;2.38;;;;;;;16.22;62.95;100409.75;5090172;28;20040;-28
2022/07/14 03:12:23;;;;;;;4.53;2.30;;;;;;;16.10;62.93;100396.44;5089998;28;20024;-29
2022/07/14 03:14:48;;;;;;;8.40;2.47;;;;;;;16.03;63.74;100396.59;5090011;28;20039;-27
2022/07/14 03:17:14;;;;;;;6.97;2.10;;;;;;;15.99;63.91;100387.38;5090444;28;20480;-27
2022/07/14 03:19:40;;;;;;;3.88;2.08;;;;;;;15.99;64.09;100414.28;5090041;28;20020;-28
2022/07/14 03:22:06;;;;;;;7.32;2.50;;;;;;;15.90;64.20;100394.25;5071769;28;20043;-28
2022/07/14 03:24:32;;;;;;;4.93;2.25;;;;;;;16.32;62.48;100396.44;5071339;28;20058;-27
2022/07/14 03:26:58;;;;;;;6.70;2.53;;;;;;;16.66;61.83;100413.31;5089724;28;20032;-27
2022/07/14 03:29:25;;;;;;;7.38;2.60;;;;;;;16.54;62.51;100409.94;5070970;28;20032;-29
2022/07/14 03:31:50;;;;;;;6.75;2.50;;;;;;;16.81;61.50;100415.41;5089951;28;20060;-27
2022/07/14 03:34:16;;;;;;;6.72;2.63;;;;;;;16.78;61.22;100410.50;5089701;28;20827;-31
2022/07/14 03:36:41;;;;;;;6.18;2.80;;;;;;;16.35;62.37;100400.53;5071458;28;20032;-28
2022/07/14 03:39:07;;;;;;;13.52;2.90;;;;;;;16.43;62.99;100409.00;5089597;28;20032;-27
2022/07/14 03:41:32;;;;;;;7.95;2.50;;;;;;;16.19;63.53;100399.50;5089291;28;20044;-27
2022/07/14 03:43:57;;;;;;;5.55;2.38;;;;;;;16.24;64.71;100415.72;5089735;28;20441;-28
2022/07/14 03:46:24;;;;;;;8.05;3.13;;;;;;;16.29;65.00;100410.41;5070430;28;20040;-28
2022/07/14 03:48:51;;;;;;;6.07;2.67;;;;;;;16.23;63.66;100403.34;5089570;28;20020;-27
2022/07/14 03:51:16;;;;;;;5.22;3.25;;;;;;;16.11;65.02;100416.06;5089735;28;20028;-30
2022/07/14 03:53:42;;;;;;;5.93;2.60;;;;;;;16.28;63.67;100416.84;5089407;28;20047;-29
2022/07/14 03:56:07;;;;;;;4.78;2.70;;;;;;;16.13;64.81;100430.09;5089189;28;20059;-29
2022/07/14 03:58:33;;;;;;;6.55;2.83;;;;;;;16.17;65.36;100410.50;5089179;28;20717;-28
2022/07/14 04:00:59;;;;;;;7.50;2.78;;;;;;;16.42;65.42;100415.41;5089353;28;20032;-28
2022/07/14 04:03:24;;;;;;;10.00;2.95;;;;;;;16.40;64.65;100425.63;5070703;28;20399;-28
2022/07/14 04:05:50;;;;;;;6.38;2.97;;;;;;;16.44;64.39;100420.56;5089044;28;20028;-27
2022/07/14 04:08:16;;;;;;;7.10;2.65;;;;;;;16.43;65.08;100418.94;5089057;28;20476;-27
2022/07/14 04:10:41;;;;;;;5.63;2.80;;;;;;;16.57;64.08;100408.59;5088936;28;20035;-28
2022/07/14 04:13:06;;;;;;;6.28;2.97;;;;;;;17.07;61.84;100419.19;5088764;28;20400;-27
2022/07/14 04:15:32;;;;;;;4.80;2.58;;;;;;;16.93;62.20;100406.38;5088833;28;20039;-30
2022/07/14 04:17:58;;;;;;;7.70;3.05;;;;;;;16.94;63.40;100426.84;5089059;28;20035;-27
2022/07/14 04:20:26;;;;;;;7.72;2.80;;;;;;;17.25;63.09;100425.31;5070765;28;20548;-28
2022/07/14 04:22:51;;;;;;;7.32;2.70;;;;;;;17.17;63.19;100415.78;5070487;28;20035;-28
2022/07/14 04:25:17;;;;;;;6.82;2.88;;;;;;;17.16;62.32;100424.97;5088767;28;20032;-27
2022/07/14 04:27:43;;;;;;;4.78;3.00;;;;;;;17.24;64.17;100427.22;5088502;28;20112;-28
2022/07/14 04:30:11;;;;;;;4.22;2.70;;;;;;;17.51;63.90;100418.28;5088754;28;20040;-27
2022/07/14 04:32:37;;;;;;;5.00;2.58;;;;;;;17.26;62.77;100411.59;5070207;28;20063;-33
2022/07/14 04:35:04;;;;;;;4.43;2.60;;;;;;;17.60;62.78;100432.91;5088557;28;20055;-27
2022/07/14 04:37:30;;;;;;;5.70;2.53;;;;;;;17.69;61.77;100425.16;5070164;28;20039;-33
2022/07/14 04:39:55;;;;;;;4.63;2.17;;;;;;;17.91;60.59;100414.31;5088409;28;20032;-29
2022/07/14 04:42:22;;;;;;;4.97;2.50;;;;;;;18.12;60.83;100430.63;5088009;28;20428;-27
2022/07/14 04:44:48;;;;;;;5.28;2.40;;;;;;;18.06;60.64;100414.41;5070035;28;20032;-27
2022/07/14 04:47:14;;;;;;;5.35;2.30;;;;;;;18.13;60.66;100418.78;5088191;28;20639;-28
2022/07/14 04:52:24;;;;;;;4.35;2.35;;;;;;;18.77;58.84;100440.16;5088318;28;20034;-27
2022/07/14 04:54:50;;;;;;;6.07;2.50;;;;;;;18.89;59.30;100447.28;5087808;28;20040;-31
2022/07/14 04:57:15;;;;;;;3.47;2.20;;;;;;;18.87;58.72;100418.59;5088484;28;20039;-32
2022/07/14 04:59:41;;;;;;;5.57;2.15;;;;;;;19.09;57.89;100431.13;5087778;28;20028;-27
2022/07/14 05:02:06;;;;;;;3.58;2.05;;;;;;;19.07;56.26;100438.69;5088068;28;20035;-29
2022/07/14 05:04:32;;;;;;;4.45;2.13;;;;;;;19.01;57.44;100431.63;5087920;28;20036;-29
2022/07/14 05:06:57;;;;;;;5.28;2.22;;;;;;;19.16;56.79;100434.38;5069628;28;20020;-27
2022/07/14 05:09:30;;;;;;;4.47;2.15;;;;;;;19.63;55.53;100456.88;5069276;28;20035;-27
2022/07/14 05:11:55;;;;;;;4.78;2.20;;;;;;;19.60;54.64;100447.41;5069752;28;20428;-30
2022/07/14 05:14:21;;;;;;;4.72;1.90;;;;;;;19.66;55.71;100456.34;5088012;28;20504;-28
2022/07/14 05:16:48;;;;;;;5.57;2.08;;;;;;;19.73;55.17;100456.13;5069387;28;20031;-29
2022/07/14 05:19:15;;;;;;;13.05;2.83;;;;;;;19.85;54.85;100467.47;5087913;28;20054;-28
2022/07/14 05:21:40;;;;;;;4.65;2.20;;;;;;;19.88;55.35;100453.41;5068979;28;20115;-31
2022/07/14 05:24:06;;;;;;;5.43;2.70;;;;;;;19.98;54.97;100458.00;5069103;28;20040;-30
2022/07/14 05:26:32;;;;;;;4.60;2.97;;;;;;;20.11;55.11;100456.66;5069391;28;20028;-28
2022/07/14 05:28:57;;;;;;;4.10;2.15;;;;;;;20.18;54.79;100459.88;5087799;28;20066;-27
2022/07/14 05:31:23;;;;;;;4.68;2.25;;;;;;;20.43;54.09;100448.16;5087165;28;20031;-28
2022/07/14 05:33:49;;;;;;;6.03;2.10;;;;;;;20.56;54.50;100446.78;5087589;28;20476;-27
2022/07/14 05:36:15;;;;;;;6.38;2.35;;;;;;;20.87;53.80;100448.31;5087323;28;20070;-29
2022/07/14 05:38:41;;;;;;;3.95;2.30;;;;;;;21.05;52.43;100448.78;5087273;28;20068;-31
2022/07/14 05:41:06;;;;;;;6.68;2.35;;;;;;;21.23;51.08;100458.19;5068799;28;20518;-31
2022/07/14 05:43:32;;;;;;;4.90;2.20;;;;;;;21.39;52.08;100448.00;5087243;28;20032;-28
2022/07/14 05:46:05;;;;;;;3.67;2.00;;;;;;;21.49;51.07;100428.97;5087101;28;20036;-28
2022/07/14 05:48:31;;;;;;;4.40;2.05;;;;;;;21.66;49.60;100451.13;5068755;28;20028;-32
2022/07/14 05:51:12;;;;;;;5.25;2.00;;;;;;;21.90;50.01;100453.06;5086941;28;20032;-27
2022/07/14 05:53:39;;;;;;;6.32;1.90;;;;;;;21.87;47.67;100453.66;5068744;28;20198;-28
2022/07/14 05:56:05;;;;;;;5.63;1.73;;;;;;;21.87;48.38;100448.22;5068843;28;20411;-29
2022/07/14 05:58:31;;;;;;;5.95;2.30;;;;;;;21.86;48.96;100455.56;5068768;28;20056;-32
2022/07/14 06:00:57;;;;;;;2.72;1.70;;;;;;;21.99;47.74;100462.25;5068609;28;20028;-29
2022/07/14 06:03:23;;;;;;;3.42;2.10;;;;;;;22.18;48.33;100456.09;5086374;28;20085;-28
2022/07/14 06:05:48;;;;;;;4.00;2.08;;;;;;;22.19;48.01;100433.25;5086694;28;20115;-28
2022/07/14 06:08:14;;;;;;;5.05;1.88;;;;;;;22.38;47.56;100436.91;5086956;28;20380;-28
2022/07/14 06:10:39;;;;;;;3.78;1.90;;;;;;;22.53;47.13;100460.38;5067914;28;20071;-29
2022/07/14 06:13:05;;;;;;;4.95;1.95;;;;;;;22.80;47.77;100459.78;5068384;28;20024;-28
2022/07/14 06:15:30;;;;;;;6.63;2.22;;;;;;;22.78;46.92;100455.72;5086348;28;20043;-28
2022/07/14 06:17:56;;;;;;;3.35;1.83;;;;;;;22.93;47.58;100457.47;5068227;28;20060;-31
2022/07/14 06:20:22;;;;;;;2.85;1.60;;;;;;;23.10;46.04;100457.78;5068410;28;20032;-32
2022/07/14 06:22:49;;;;;;;3.25;1.80;;;;;;;23.11;45.94;100445.81;5068717;28;20519;-29
2022/07/14 06:25:15;;;;;;;4.47;1.73;;;;;;;23.33;45.46;100450.66;5068589;28;20036;-37
2022/07/14 06:27:41;;;;;;;4.55;1.80;;;;;;;23.41;46.26;100457.34;5068227;28;20265;-28
2022/07/14 06:30:08;;;;;;;5.68;1.85;;;;;;;23.50;45.22;100443.88;5086771;28;20024;-28
2022/07/14 06:32:34;;;;;;;4.30;1.80;;;;;;;23.73;44.82;100458.50;5067953;28;20562;-29
2022/07/14 06:34:59;;;;;;;3.75;1.55;;;;;;;23.72;45.57;100445.97;5051542;28;20032;-28
2022/07/14 06:37:25;;;;;;;4.85;1.95;;;;;;;23.83;45.66;100453.72;5086437;28;20024;-27
2022/07/14 06:39:51;;;;;;;6.00;1.80;;;;;;;23.81;43.68;100455.91;5068480;28;20182;-28
2022/07/14 06:42:17;;;;;;;2.97;1.70;;;;;;;23.99;44.50;100456.97;5086245;28;20044;-28
2022/07/14 06:44:42;;;;;;;6.35;1.58;;;;;;;23.96;44.29;100454.84;5086583;28;20036;-34
2022/07/14 06:47:08;;;;;;;4.20;1.88;;;;;;;23.97;45.34;100442.06;5086356;28;20107;-31
2022/07/14 06:49:34;;;;;;;2.65;1.67;;;;;;;24.31;42.92;100451.78;5086677;28;20510;-33
2022/07/14 06:52:00;;;;;;;3.10;1.80;;;;;;;24.43;42.80;100449.34;5086629;28;20032;-27
2022/07/14 06:54:25;;;;;;;4.55;2.10;;;;;;;24.53;42.97;100448.38;5086356;28;20023;-28
2022/07/14 06:56:51;;;;;;;2.47;1.52;;;;;;;24.37;42.15;100434.22;5086453;28;20555;-30
2022/07/14 06:59:17;;;;;;;4.40;2.45;;;;;;;24.73;43.03;100456.16;5086329;28;20464;-30
2022/07/14 07:01:42;;;;;;;4.55;2.03;;;;;;;24.79;42.84;100446.75;5067760;28;20028;-30
2022/07/14 07:04:07;;;;;;;4.13;1.90;;;;;;;24.94;42.41;100442.88;5086455;28;20032;-31
2022/07/14 07:06:45;;;;;;;4.95;1.52;;;;;;;25.13;40.81;100437.31;5086727;28;20477;-34
2022/07/14 07:09:12;;;;;;;4.35;1.50;;;;;;;25.26;40.59;100433.75;5086782;28;20039;-28
2022/07/14 07:11:38;;;;;;;3.83;1.63;;;;;;;25.24;40.92;100408.69;5086324;28;20766;-30
2022/07/14 07:14:04;;;;;;;2.38;1.50;;;;;;;25.49;39.14;100420.09;5068402;28;20265;-39
2022/07/14 07:16:29;;;;;;;2.42;1.40;;;;;;;25.76;39.78;100430.06;5086192;28;20495;-27
2022/07/14 07:18:55;;;;;;;3.97;1.95;;;;;;;25.86;38.30;100409.88;5086246;28;20031;-28
2022/07/14 07:21:20;;;;;;;4.60;2.20;;;;;;;26.03;38.97;100433.78;5068705;28;20024;-29
2022/07/14 07:23:50;;;;;;;3.25;1.60;;;;;;;26.02;38.11;100422.06;5090028;28;20050;-35
2022/07/14 07:26:16;;;;;;;7.47;1.95;;;;;;;25.91;38.98;100409.78;5071594;28;20032;-31
2022/07/14 07:28:42;;;;;;;4.25;1.70;;;;;;;26.34;37.68;100417.38;5071314;28;20030;-33
2022/07/14 07:31:07;;;;;;;2.47;1.58;;;;;;;26.30;38.05;100405.47;5089371;28;20036;-30
2022/07/14 07:33:33;;;;;;;3.92;1.55;;;;;;;26.24;38.76;100407.53;5089612;28;20377;-28
2022/07/14 07:35:59;;;;;;;1.63;1.52;;;;;;;26.64;37.71;100429.41;5089636;28;20032;-31
2022/07/14 07:38:25;;;;;;;2.95;1.77;;;;;;;26.78;37.30;100403.84;5071346;28;20507;-34
2022/07/14 07:40:53;;;;;;;3.85;1.50;;;;;;;26.99;36.96;100418.53;5089632;28;20035;-28
2022/07/14 07:43:21;;;;;;;3.17;1.50;;;;;;;27.06;36.89;100415.28;5089104;28;20086;-31
2022/07/14 07:45:48;;;;;;;3.78;1.55;;;;;;;27.24;35.21;100405.97;5089386;28;20147;-28
2022/07/14 07:48:13;;;;;;;3.85;1.50;;;;;;;27.42;34.84;100411.44;5070945;28;20028;-30
2022/07/14 07:50:43;;;;;;;5.88;1.60;;;;;;;27.42;34.58;100412.25;5089449;28;20055;-32
2022/07/14 07:53:10;;;;;;;2.53;1.20;;;;;;;27.55;34.33;100398.72;5070944;28;20087;-36
2022/07/14 07:55:35;;;;;;;6.07;1.50;;;;;;;27.73;34.78;100415.91;5070742;28;20028;-28
2022/07/14 07:58:01;;;;;;;2.15;1.02;;;;;;;27.65;31.17;100410.13;5070562;28;20039;-33
2022/07/14 08:00:27;;;;;;;6.25;1.35;;;;;;;27.67;32.02;100395.31;5089409;28;20090;-28
2022/07/14 08:02:53;;;;;;;4.80;1.15;;;;;;;27.69;33.07;100404.00;5088872;28;20492;-31
2022/07/14 08:05:22;;;;;;;2.58;1.27;;;;;;;27.90;31.92;100391.22;5088969;28;20043;-35
2022/07/14 08:07:48;;;;;;;4.18;1.25;;;;;;;27.93;30.05;100400.72;5089110;28;20020;-31
2022/07/14 08:10:14;;;;;;;2.33;0.98;;;;;;;28.04;30.09;100405.53;5089024;28;20034;-32
2022/07/14 08:12:40;;;;;;;0.95;0.90;;;;;;;28.05;28.68;100403.56;5070285;28;20035;-33
2022/07/14 08:15:06;;;;;;;3.00;1.10;;;;;;;28.25;29.86;100404.78;5088749;28;20024;-30
2022/07/14 08:17:32;;;;;;;5.65;1.20;;;;;;;28.18;29.71;100401.78;5070516;28;20039;-30
2022/07/14 08:19:57;;;;;;;3.05;1.13;;;;;;;28.40;29.26;100381.47;5088682;28;20028;-28
2022/07/14 08:22:24;;;;;;;3.58;1.25;;;;;;;28.61;30.31;100398.03;5088693;28;20062;-31
2022/07/14 08:24:50;;;;;;;3.33;1.47;;;;;;;28.67;30.25;100390.38;5070198;28;20067;-29
2022/07/14 08:27:16;;;;;;;4.47;1.27;;;;;;;28.61;30.44;100387.03;5070015;28;20262;-31
2022/07/14 08:29:42;;;;;;;4.63;1.30;;;;;;;28.55;29.00;100374.66;5070122;28;20028;-28
2022/07/14 08:32:07;;;;;;;3.70;1.13;;;;;;;28.64;29.04;100394.59;5087903;28;20035;-29
2022/07/14 08:34:33;;;;;;;4.80;1.80;;;;;;;28.79;28.66;100388.53;5088603;28;20150;-31
2022/07/14 08:36:59;;;;;;;3.47;1.27;;;;;;;28.76;28.97;100380.94;5070196;28;20487;-30
2022/07/14 08:39:25;;;;;;;3.47;1.10;;;;;;;28.94;29.21;100376.13;5088365;28;20110;-31
2022/07/14 08:41:54;;;;;;;3.47;1.40;;;;;;;29.25;27.64;100400.44;5069484;28;20136;-29
2022/07/14 08:44:21;;;;;;;2.65;1.10;;;;;;;29.44;28.16;100379.91;5070195;28;20032;-29
2022/07/14 08:46:47;;;;;;;1.77;1.10;;;;;;;29.24;28.45;100387.06;5069852;28;20424;-30
2022/07/14 08:49:14;;;;;;;3.55;1.10;;;;;;;29.33;29.72;100381.50;5069759;28;20073;-29
2022/07/14 08:51:42;;;;;;;3.15;1.20;;;;;;;29.33;28.08;100378.75;5069756;28;20036;-29
2022/07/14 08:54:09;;;;;;;;;;;;;;;29.32;29.38;100368.88;5070299;28;20036;-30
2022/07/14 08:56:35;;;;;;;3.90;1.25;;;;;;;29.54;29.30;100362.19;5053289;28;19963;-33
2022/07/14 08:59:00;;;;;;;2.72;1.20;;;;;;;30.05;29.20;100369.06;5069726;28;20095;-30
2022/07/14 09:01:26;;;;;;;1.65;1.00;;;;;;;30.48;27.87;100369.63;5069447;28;20806;-31
2022/07/14 09:03:53;;;;;;;1.63;1.10;;;;;;;30.42;28.32;100349.84;5087924;28;20114;-28
2022/07/14 09:06:52;;;;;;;3.25;1.42;;;;;;;30.56;27.04;100365.16;5069460;28;20032;-31
2022/07/14 09:09:27;;;;;;;5.75;1.45;;;;;;;30.30;28.15;100349.03;5069652;28;20579;-31
2022/07/14 09:11:56;;;;;;;4.25;1.33;;;;;;;30.57;28.82;100350.25;5069425;28;20522;-29
2022/07/14 09:14:22;;;;;;;2.67;1.20;;;;;;;30.53;26.52;100357.63;5087646;28;20035;-28
2022/07/14 09:16:47;;;;;;;5.05;1.40;;;;;;;30.55;26.31;100358.06;5067163;28;20031;-28
2022/07/14 09:19:15;;;;;;;4.05;1.20;;;;;;;30.60;26.64;100344.06;5065316;28;20047;-34
2022/07/14 09:21:55;;;;;;;4.05;1.08;;;;;;;30.54;26.20;100350.94;5073481;28;20043;-31
2022/07/14 09:24:22;;;;;;;4.53;1.77;;;;;;;30.42;26.63;100341.56;5084349;28;20043;-32
2022/07/14 09:26:52;;;;;;;3.17;1.30;;;;;;;30.67;27.52;100343.44;5069257;28;20028;-29
2022/07/14 09:29:26;;;;;;;3.00;1.30;;;;;;;30.95;26.16;100338.00;5069141;28;20032;-28
2022/07/14 09:31:52;;;;;;;4.28;1.25;;;;;;;31.04;26.53;100328.44;5087303;28;20780;-31
2022/07/14 09:34:31;;;;;;;3.78;1.10;;;;;;;31.57;27.24;100335.78;5087493;28;20032;-31
2022/07/14 09:37:17;;;;;;;1.88;0.88;;;;;;;31.96;27.60;100333.19;5087527;28;20032;-31
2022/07/14 09:39:57;;;;;;;3.10;0.93;;;;;;;31.97;24.49;100332.81;5087187;28;20034;-28
2022/07/14 09:42:53;;;;;;;4.53;1.20;;;;;;;32.07;25.09;100333.47;5068439;28;20434;-31
2022/07/14 09:45:22;;;;;;;7.97;1.25;;;;;;;31.73;25.56;100330.25;5086130;28;20028;-28
2022/07/14 09:48:04;;;;;;;3.00;1.30;;;;;;;32.12;24.49;100334.00;5068788;28;20047;-32
2022/07/14 09:50:37;;;;;;;3.03;1.10;;;;;;;31.98;26.24;100328.13;5086959;28;20024;-30
2022/07/14 09:53:16;;;;;;;3.15;1.25;;;;;;;32.19;24.89;100325.09;5068909;28;20104;-28
2022/07/14 09:55:48;;;;;;;5.53;1.40;;;;;;;32.23;24.30;100337.78;5068519;28;20028;-29
2022/07/14 09:58:13;;;;;;;3.80;1.42;;;;;;;32.29;24.83;100341.09;5085481;28;20035;-30
2022/07/14 10:00:41;;;;;;;3.45;1.30;;;;;;;31.97;26.64;100321.78;5085420;28;20036;-30
2022/07/14 10:03:07;;;;;;;8.55;1.73;;;;;;;32.22;24.96;100327.94;5086811;28;20035;-32
2022/07/14 10:05:34;;;;;;;1.80;1.15;;;;;;;32.18;25.01;100332.56;5068664;28;20866;-29
2022/07/14 10:08:04;;;;;;;2.50;1.30;;;;;;;32.28;25.07;100325.66;5087145;28;20484;-29
2022/07/14 10:10:33;;;;;;;3.05;1.02;;;;;;;32.03;24.80;100309.34;5086870;28;20039;-28
2022/07/14 10:12:59;;;;;;;2.85;1.42;;;;;;;32.21;25.74;100318.03;5068748;28;20039;-29
2022/07/14 10:15:26;;;;;;;2.60;1.17;;;;;;;32.25;24.38;100304.34;5068143;28;20028;-35
2022/07/14 10:17:53;;;;;;;1.73;1.05;;;;;;;32.05;23.99;100300.72;5068573;28;20050;-30
2022/07/14 10:20:19;;;;;;;1.70;1.08;;;;;;;32.11;24.75;100306.78;5087146;28;20039;-32
2022/07/14 10:22:46;;;;;;;4.97;1.30;;;;;;;32.25;24.66;100287.78;5068602;28;20024;-29
2022/07/14 10:25:11;;;;;;;4.17;1.00;;;;;;;32.37;24.24;100284.88;5085479;28;20081;-29
2022/07/14 10:27:41;;;;;;;2.47;0.90;;;;;;;32.65;24.07;100292.19;5086651;28;20101;-31
2022/07/14 10:30:08;;;;;;;2.47;1.20;;;;;;;32.93;24.17;100302.22;5068311;28;20071;-33
2022/07/14 10:32:35;;;;;;;2.28;1.40;;;;;;;32.91;23.73;100308.09;5068272;28;20024;-29
2022/07/14 10:35:38;;;;;;;3.60;1.20;;;;;;;32.97;23.74;100305.84;5068319;28;20122;-28
2022/07/14 10:38:24;;;;;;;3.08;1.10;;;;;;;33.13;22.50;100303.81;5086593;28;20111;-33
2022/07/14 10:41:24;;;;;;;2.38;1.10;;;;;;;33.17;22.86;100293.63;5068209;28;20063;-30
2022/07/14 10:44:05;;;;;;;2.50;1.00;;;;;;;32.77;23.88;100286.50;5086772;28;20456;-31
2022/07/14 10:46:43;;;;;;;3.97;1.38;;;;;;;32.94;24.14;100277.00;5068198;28;20040;-31
2022/07/14 10:49:10;;;;;;;3.88;1.23;;;;;;;33.60;23.65;100265.94;5068666;28;20074;-32
2022/07/14 10:51:45;;;;;;;2.60;1.30;;;;;;;33.78;22.24;100250.44;5086837;28;20067;-28
2022/07/14 10:54:13;;;;;;;2.83;1.20;;;;;;;33.59;22.35;100276.19;5086641;28;20028;-37
2022/07/14 10:56:41;;;;;;;4.28;1.20;;;;;;;33.02;22.90;100264.13;5089363;28;20059;-33
2022/07/14 10:59:25;;;;;;;2.63;1.10;;;;;;;32.71;23.51;100271.41;5090293;28;20111;-30
2022/07/14 11:02:12;;;;;;;4.18;1.10;;;;;;;32.45;23.26;100274.81;5090505;28;20028;-29
2022/07/14 11:04:57;;;;;;;2.95;1.25;;;;;;;32.57;23.92;100265.59;5090439;28;20733;-30
2022/07/14 11:07:58;;;;;;;2.33;1.10;;;;;;;33.30;24.96;100268.56;5089916;28;20076;-33
2022/07/14 11:10:24;;;;;;;3.80;1.05;;;;;;;32.80;22.90;100269.22;5071874;28;20024;-29
2022/07/14 11:12:59;;;;;;;3.75;1.30;;;;;;;32.85;23.64;100261.81;5089963;28;20024;-28
2022/07/14 11:15:42;;;;;;;1.88;1.20;;;;;;;33.15;22.93;100257.28;5089705;28;20039;-31
2022/07/14 11:18:29;;;;;;;3.75;1.20;;;;;;;33.33;22.77;100262.31;5071537;28;20024;-29
2022/07/14 11:21:07;;;;;;;3.15;1.30;;;;;;;33.33;24.00;100256.78;5071700;28;20028;-29
2022/07/14 11:23:57;;;;;;;2.35;1.30;;;;;;;33.86;23.02;100265.19;5089712;28;20023;-30
2022/07/14 11:26:35;;;;;;;3.65;1.25;;;;;;;34.39;21.29;100262.38;5071042;28;20043;-31
2022/07/14 11:29:03;;;;;;;1.00;0.93;;;;;;;34.24;21.78;100263.34;5089854;28;20024;-28
2022/07/14 11:31:42;;;;;;;8.40;1.67;;;;;;;34.50;23.05;100250.63;5071170;28;20031;-31
2022/07/14 11:37:11;;;;;;;3.17;1.30;;;;;;;34.11;23.05;100248.13;5089900;28;20039;-34
2022/07/14 11:39:37;;;;;;;;;;;;;;;34.22;22.88;100252.69;5071767;28;20028;-29
2022/07/14 11:42:13;;;;;;;1.80;1.10;;;;;;;34.17;21.20;100243.91;5089163;28;20678;-29